sensor_id;sensor_type;location;lat;lon;timestamp;pressure;altitude;pressure_sealevel;temperature;humidity
10712;BME280;5407;51.234;6.804;2023-03-03T00:01:05;101749.03;;;24.05;34.06
10712;BME280;5407;51.234;6.804;2023-03-03T00:03:32;101751.38;;;24.07;34.12
10712;BME280;5407;51.234;6.804;2023-03-03T00:06:02;101752.56;;;24.06;33.89
10712;BME280;5407;51.234;6.804;2023-03-03T00:08:30;101749.41;;;24.07;34.10
10712;BME280;5407;51.234;6.804;2023-03-03T00:10:57;101748.59;;;24.07;33.94
10712;BME280;5407;51.234;6.804;2023-03-03T00:13:26;101754.91;;;24.07;34.11
10712;BME280;5407;51.234;6.804;2023-03-03T00:16:08;101754.91;;;24.07;33.99
10712;BME280;5407;51.234;6.804;2023-03-03T00:18:40;101750.59;;;24.06;34.00
10712;BME280;5407;51.234;6.804;2023-03-03T00:21:19;101758.88;;;24.06;34.01
10712;BME280;5407;51.234;6.804;2023-03-03T00:23:47;101763.59;;;24.06;33.88
10712;BME280;5407;51.234;6.804;2023-03-03T00:26:19;101765.56;;;24.05;33.91
10712;BME280;5407;51.234;6.804;2023-03-03T00:28:49;101762.81;;;24.05;34.09
10712;BME280;5407;51.234;6.804;2023-03-03T00:31:17;101766.75;;;24.04;34.00
10712;BME280;5407;51.234;6.804;2023-03-03T00:33:47;101761.25;;;24.04;33.92
10712;BME280;5407;51.234;6.804;2023-03-03T00:36:35;101758.50;;;24.04;34.03
10712;BME280;5407;51.234;6.804;2023-03-03T00:39:24;101773.03;;;24.05;34.00
10712;BME280;5407;51.234;6.804;2023-03-03T00:41:52;101774.66;;;24.02;33.94
10712;BME280;5407;51.234;6.804;2023-03-03T00:44:38;101775.44;;;24.03;34.01
10712;BME280;5407;51.234;6.804;2023-03-03T00:47:18;101771.09;;;24.02;33.99
10712;BME280;5407;51.234;6.804;2023-03-03T00:49:49;101773.09;;;24.01;34.17
10712;BME280;5407;51.234;6.804;2023-03-03T00:52:18;101772.28;;;24.01;34.05
10712;BME280;5407;51.234;6.804;2023-03-03T00:54:45;101767.56;;;24.01;34.21
10712;BME280;5407;51.234;6.804;2023-03-03T00:57:12;101771.53;;;24.00;34.06
10712;BME280;5407;51.234;6.804;2023-03-03T00:59:41;101774.28;;;24.00;34.19
10712;BME280;5407;51.234;6.804;2023-03-03T01:02:08;101771.53;;;24.00;34.18
10712;BME280;5407;51.234;6.804;2023-03-03T01:04:35;101777.03;;;24.00;34.07
10712;BME280;5407;51.234;6.804;2023-03-03T01:07:02;101774.28;;;24.00;34.15
10712;BME280;5407;51.234;6.804;2023-03-03T01:09:30;101784.88;;;24.02;34.08
10712;BME280;5407;51.234;6.804;2023-03-03T01:11:59;101784.88;;;24.02;34.02
10712;BME280;5407;51.234;6.804;2023-03-03T01:14:26;101785.69;;;24.02;33.88
10712;BME280;5407;51.234;6.804;2023-03-03T01:16:53;101784.13;;;24.01;33.92
10712;BME280;5407;51.234;6.804;2023-03-03T01:19:20;101789.63;;;24.01;33.87
10712;BME280;5407;51.234;6.804;2023-03-03T01:21:47;101788.06;;;24.00;33.94
10712;BME280;5407;51.234;6.804;2023-03-03T01:24:13;101783.31;;;24.01;34.08
10712;BME280;5407;51.234;6.804;2023-03-03T01:26:42;101784.13;;;24.01;34.03
10712;BME280;5407;51.234;6.804;2023-03-03T01:29:08;101792.78;;;24.00;33.89
10712;BME280;5407;51.234;6.804;2023-03-03T01:31:35;101798.28;;;24.00;33.88
10712;BME280;5407;51.234;6.804;2023-03-03T01:34:02;101797.91;;;24.01;34.06
10712;BME280;5407;51.234;6.804;2023-03-03T01:36:29;101793.56;;;24.00;34.13
10712;BME280;5407;51.234;6.804;2023-03-03T01:38:56;101792.00;;;23.99;33.91
10712;BME280;5407;51.234;6.804;2023-03-03T01:41:25;101787.69;;;23.98;33.97
10712;BME280;5407;51.234;6.804;2023-03-03T01:43:55;101800.28;;;23.99;34.07
10712;BME280;5407;51.234;6.804;2023-03-03T01:46:45;101801.84;;;24.00;33.85
10712;BME280;5407;51.234;6.804;2023-03-03T01:49:15;101799.91;;;23.97;34.09
10712;BME280;5407;51.234;6.804;2023-03-03T01:51:47;101794.38;;;23.97;34.02
10712;BME280;5407;51.234;6.804;2023-03-03T01:54:17;101797.16;;;23.97;34.08
10712;BME280;5407;51.234;6.804;2023-03-03T01:56:46;101793.97;;;23.99;33.97
10712;BME280;5407;51.234;6.804;2023-03-03T01:59:17;101795.97;;;23.98;33.99
10712;BME280;5407;51.234;6.804;2023-03-03T02:01:46;101782.56;;;23.97;33.90
10712;BME280;5407;51.234;6.804;2023-03-03T02:04:13;101788.06;;;23.97;33.88
10712;BME280;5407;51.234;6.804;2023-03-03T02:06:44;101786.88;;;23.98;34.06
10712;BME280;5407;51.234;6.804;2023-03-03T02:09:17;101793.59;;;23.97;33.99
10712;BME280;5407;51.234;6.804;2023-03-03T02:11:50;101792.03;;;23.96;34.09
10712;BME280;5407;51.234;6.804;2023-03-03T02:14:19;101787.31;;;23.96;33.85
10712;BME280;5407;51.234;6.804;2023-03-03T02:16:46;101788.88;;;23.97;33.99
10712;BME280;5407;51.234;6.804;2023-03-03T02:19:21;101781.00;;;23.96;33.94
10712;BME280;5407;51.234;6.804;2023-03-03T02:21:51;101788.06;;;23.97;34.12
10712;BME280;5407;51.234;6.804;2023-03-03T02:24:24;101785.75;;;23.95;34.04
10712;BME280;5407;51.234;6.804;2023-03-03T02:26:53;101789.69;;;23.94;34.07
10712;BME280;5407;51.234;6.804;2023-03-03T02:29:21;101795.56;;;23.96;33.99
10712;BME280;5407;51.234;6.804;2023-03-03T02:31:48;101792.81;;;23.96;33.86
10712;BME280;5407;51.234;6.804;2023-03-03T02:34:15;101801.09;;;23.96;33.88
10712;BME280;5407;51.234;6.804;2023-03-03T02:36:42;101805.41;;;23.97;33.86
10712;BME280;5407;51.234;6.804;2023-03-03T02:39:13;101794.38;;;23.97;33.77
10712;BME280;5407;51.234;6.804;2023-03-03T02:41:49;101795.97;;;23.98;33.85
10712;BME280;5407;51.234;6.804;2023-03-03T02:44:21;101797.91;;;23.98;34.02
10712;BME280;5407;51.234;6.804;2023-03-03T02:46:49;101795.97;;;23.98;33.90
10712;BME280;5407;51.234;6.804;2023-03-03T02:49:19;101795.97;;;23.98;33.89
10712;BME280;5407;51.234;6.804;2023-03-03T02:51:46;101784.13;;;23.98;33.73
10712;BME280;5407;51.234;6.804;2023-03-03T02:54:15;101791.63;;;23.97;33.88
10712;BME280;5407;51.234;6.804;2023-03-03T02:56:42;101797.91;;;23.98;33.75
10712;BME280;5407;51.234;6.804;2023-03-03T02:59:09;101806.19;;;23.98;33.69
10712;BME280;5407;51.234;6.804;2023-03-03T03:01:44;101804.22;;;23.98;33.89
10712;BME280;5407;51.234;6.804;2023-03-03T03:04:16;101810.94;;;23.97;33.68
10712;BME280;5407;51.234;6.804;2023-03-03T03:06:46;101812.50;;;23.98;33.88
10712;BME280;5407;51.234;6.804;2023-03-03T03:09:16;101818.00;;;23.98;33.61
10712;BME280;5407;51.234;6.804;2023-03-03T03:11:44;101818.41;;;23.97;33.75
10712;BME280;5407;51.234;6.804;2023-03-03T03:14:13;101820.38;;;23.96;33.74
10712;BME280;5407;51.234;6.804;2023-03-03T03:16:43;101817.63;;;23.96;33.90
10712;BME280;5407;51.234;6.804;2023-03-03T03:19:10;101819.19;;;23.97;33.82
10712;BME280;5407;51.234;6.804;2023-03-03T03:21:38;101817.63;;;23.96;33.74
10712;BME280;5407;51.234;6.804;2023-03-03T03:24:07;101810.56;;;23.95;33.82
10712;BME280;5407;51.234;6.804;2023-03-03T03:26:36;101813.31;;;23.95;33.85
10712;BME280;5407;51.234;6.804;2023-03-03T03:29:03;101817.25;;;23.94;33.90
10712;BME280;5407;51.234;6.804;2023-03-03T03:31:30;101815.69;;;23.93;33.94
10712;BME280;5407;51.234;6.804;2023-03-03T03:33:59;101811.38;;;23.92;33.73
10712;BME280;5407;51.234;6.804;2023-03-03T03:36:27;101819.63;;;23.92;33.76
10712;BME280;5407;51.234;6.804;2023-03-03T03:38:54;101829.09;;;23.91;33.83
10712;BME280;5407;51.234;6.804;2023-03-03T03:41:21;101828.66;;;23.93;33.73
10712;BME280;5407;51.234;6.804;2023-03-03T03:43:48;101834.59;;;23.91;33.69
10712;BME280;5407;51.234;6.804;2023-03-03T03:46:15;101820.03;;;23.91;33.76
10712;BME280;5407;51.234;6.804;2023-03-03T03:48:42;101818.84;;;23.92;33.61
10712;BME280;5407;51.234;6.804;2023-03-03T03:51:13;101811.75;;;23.91;33.76
10712;BME280;5407;51.234;6.804;2023-03-03T03:53:41;101823.56;;;23.91;33.65
10712;BME280;5407;51.234;6.804;2023-03-03T03:56:08;101831.03;;;23.91;33.73
10712;BME280;5407;51.234;6.804;2023-03-03T03:58:34;101833.03;;;23.90;33.54
10712;BME280;5407;51.234;6.804;2023-03-03T04:01:06;101835.38;;;23.92;33.57
10712;BME280;5407;51.234;6.804;2023-03-03T04:03:39;101824.75;;;23.90;33.57
10712;BME280;5407;51.234;6.804;2023-03-03T04:06:10;101814.13;;;23.92;33.60
10712;BME280;5407;51.234;6.804;2023-03-03T04:08:38;101817.25;;;23.91;33.51
10712;BME280;5407;51.234;6.804;2023-03-03T04:11:07;101816.50;;;23.90;33.55
10712;BME280;5407;51.234;6.804;2023-03-03T04:13:34;101812.94;;;23.90;33.65
10712;BME280;5407;51.234;6.804;2023-03-03T04:16:04;101816.50;;;23.90;33.57
10712;BME280;5407;51.234;6.804;2023-03-03T04:18:31;101814.94;;;23.89;33.60
10712;BME280;5407;51.234;6.804;2023-03-03T04:20:58;101820.44;;;23.89;33.66
10712;BME280;5407;51.234;6.804;2023-03-03T04:23:26;101829.47;;;23.90;33.53
10712;BME280;5407;51.234;6.804;2023-03-03T04:25:54;101833.44;;;23.89;33.51
10712;BME280;5407;51.234;6.804;2023-03-03T04:28:22;101836.97;;;23.89;33.64
10712;BME280;5407;51.234;6.804;2023-03-03T04:30:50;101834.22;;;23.89;33.62
10712;BME280;5407;51.234;6.804;2023-03-03T04:33:19;101829.88;;;23.88;33.70
10712;BME280;5407;51.234;6.804;2023-03-03T04:35:47;101831.47;;;23.89;33.50
10712;BME280;5407;51.234;6.804;2023-03-03T04:38:14;101842.50;;;23.89;33.69
10712;BME280;5407;51.234;6.804;2023-03-03T04:40:42;101833.44;;;23.89;33.66
10712;BME280;5407;51.234;6.804;2023-03-03T04:43:12;101839.31;;;23.87;33.76
10712;BME280;5407;51.234;6.804;2023-03-03T04:45:39;101839.31;;;23.87;33.58
10712;BME280;5407;51.234;6.804;2023-03-03T04:48:07;101835.00;;;23.86;33.64
10712;BME280;5407;51.234;6.804;2023-03-03T04:50:35;101840.50;;;23.86;33.63
10712;BME280;5407;51.234;6.804;2023-03-03T04:53:02;101836.56;;;23.87;33.71
10712;BME280;5407;51.234;6.804;2023-03-03T04:55:29;101837.75;;;23.86;33.77
10712;BME280;5407;51.234;6.804;2023-03-03T04:57:56;101844.47;;;23.85;33.89
10712;BME280;5407;51.234;6.804;2023-03-03T05:00:25;101841.69;;;23.85;33.68
10712;BME280;5407;51.234;6.804;2023-03-03T05:02:52;101838.94;;;23.85;33.89
10712;BME280;5407;51.234;6.804;2023-03-03T05:05:19;101841.69;;;23.85;33.66
10712;BME280;5407;51.234;6.804;2023-03-03T05:07:46;101841.69;;;23.85;33.80
10712;BME280;5407;51.234;6.804;2023-03-03T05:10:12;101844.47;;;23.85;33.76
10712;BME280;5407;51.234;6.804;2023-03-03T05:12:39;101846.03;;;23.86;33.70
10712;BME280;5407;51.234;6.804;2023-03-03T05:15:07;101845.66;;;23.84;33.76
10712;BME280;5407;51.234;6.804;2023-03-03T05:17:35;101846.44;;;23.85;33.83
10712;BME280;5407;51.234;6.804;2023-03-03T05:20:03;101859.03;;;23.86;33.83
10712;BME280;5407;51.234;6.804;2023-03-03T05:22:32;101861.00;;;23.85;33.81
10712;BME280;5407;51.234;6.804;2023-03-03T05:24:59;101851.53;;;23.86;33.83
10712;BME280;5407;51.234;6.804;2023-03-03T05:27:26;101852.72;;;23.85;33.79
10712;BME280;5407;51.234;6.804;2023-03-03T05:29:53;101854.72;;;23.85;33.63
10712;BME280;5407;51.234;6.804;2023-03-03T05:32:20;101844.88;;;23.84;33.77
10712;BME280;5407;51.234;6.804;2023-03-03T05:34:48;101844.06;;;23.83;33.70
10712;BME280;5407;51.234;6.804;2023-03-03T05:37:15;101853.53;;;23.82;33.81
10712;BME280;5407;51.234;6.804;2023-03-03T05:39:42;101848.03;;;23.82;33.82
10712;BME280;5407;51.234;6.804;2023-03-03T05:42:11;101859.84;;;23.83;33.85
10712;BME280;5407;51.234;6.804;2023-03-03T05:44:38;101859.03;;;23.82;33.74
10712;BME280;5407;51.234;6.804;2023-03-03T05:47:05;101854.34;;;23.83;33.78
10712;BME280;5407;51.234;6.804;2023-03-03T05:49:32;101859.03;;;23.82;33.85
10712;BME280;5407;51.234;6.804;2023-03-03T05:52:01;101859.03;;;23.82;33.67
10712;BME280;5407;51.234;6.804;2023-03-03T05:54:27;101847.25;;;23.82;33.67
10712;BME280;5407;51.234;6.804;2023-03-03T05:56:54;101844.06;;;23.83;33.72
10712;BME280;5407;51.234;6.804;2023-03-03T05:59:22;101844.50;;;23.82;33.82
10712;BME280;5407;51.234;6.804;2023-03-03T06:01:49;101848.03;;;23.82;33.75
10712;BME280;5407;51.234;6.804;2023-03-03T06:04:16;101853.53;;;23.82;33.82
10712;BME280;5407;51.234;6.804;2023-03-03T06:06:43;101863.00;;;23.81;33.71
10712;BME280;5407;51.234;6.804;2023-03-03T06:09:11;101866.94;;;23.80;34.04
10712;BME280;5407;51.234;6.804;2023-03-03T06:11:38;101868.09;;;23.79;33.91
10712;BME280;5407;51.234;6.804;2023-03-03T06:14:05;101878.34;;;23.75;34.01
10712;BME280;5407;51.234;6.804;2023-03-03T06:16:32;101887.41;;;23.73;34.02
10712;BME280;5407;51.234;6.804;2023-03-03T06:18:58;101884.28;;;23.71;34.02
10712;BME280;5407;51.234;6.804;2023-03-03T06:21:25;101888.22;;;23.70;34.08
10712;BME280;5407;51.234;6.804;2023-03-03T06:23:52;101896.88;;;23.72;34.06
10712;BME280;5407;51.234;6.804;2023-03-03T06:26:20;101900.00;;;23.73;34.19
10712;BME280;5407;51.234;6.804;2023-03-03T06:28:47;101901.59;;;23.74;34.13
10712;BME280;5407;51.234;6.804;2023-03-03T06:31:18;101893.69;;;23.76;34.13
10712;BME280;5407;51.234;6.804;2023-03-03T06:33:45;101905.09;;;23.78;33.95
10712;BME280;5407;51.234;6.804;2023-03-03T06:36:12;101907.88;;;23.78;34.08
10712;BME280;5407;51.234;6.804;2023-03-03T06:38:39;101911.03;;;23.80;33.97
10712;BME280;5407;51.234;6.804;2023-03-03T06:41:05;101909.44;;;23.79;34.12
10712;BME280;5407;51.234;6.804;2023-03-03T06:43:34;101922.06;;;23.80;34.03
10712;BME280;5407;51.234;6.804;2023-03-03T06:46:01;101918.88;;;23.78;34.07
10712;BME280;5407;51.234;6.804;2023-03-03T06:48:28;101928.72;;;23.79;34.01
10712;BME280;5407;51.234;6.804;2023-03-03T06:50:56;101922.81;;;23.77;34.27
10712;BME280;5407;51.234;6.804;2023-03-03T06:53:23;101923.25;;;23.76;34.26
10712;BME280;5407;51.234;6.804;2023-03-03T06:55:52;101934.66;;;23.74;34.29
10712;BME280;5407;51.234;6.804;2023-03-03T06:58:21;101927.56;;;23.73;34.38
10712;BME280;5407;51.234;6.804;2023-03-03T07:00:53;101926.00;;;23.73;34.28
10712;BME280;5407;51.234;6.804;2023-03-03T07:03:22;101934.25;;;23.73;34.26
10712;BME280;5407;51.234;6.804;2023-03-03T07:05:50;101940.19;;;23.71;34.32
10712;BME280;5407;51.234;6.804;2023-03-03T07:08:20;101935.47;;;23.72;34.42
10712;BME280;5407;51.234;6.804;2023-03-03T07:10:49;101936.63;;;23.71;34.32
10712;BME280;5407;51.234;6.804;2023-03-03T07:13:19;101933.88;;;23.71;34.27
10712;BME280;5407;51.234;6.804;2023-03-03T07:15:48;101937.81;;;23.70;34.28
10712;BME280;5407;51.234;6.804;2023-03-03T07:18:34;101933.88;;;23.71;34.35
10712;BME280;5407;51.234;6.804;2023-03-03T07:21:13;101942.16;;;23.71;34.26
10712;BME280;5407;51.234;6.804;2023-03-03T07:23:43;101943.34;;;23.70;34.25
10712;BME280;5407;51.234;6.804;2023-03-03T07:26:12;101948.84;;;23.70;34.28
10712;BME280;5407;51.234;6.804;2023-03-03T07:28:41;101947.28;;;23.69;34.11
10712;BME280;5407;51.234;6.804;2023-03-03T07:31:30;101950.41;;;23.71;34.31
10712;BME280;5407;51.234;6.804;2023-03-03T07:34:04;101948.84;;;23.70;34.16
10712;BME280;5407;51.234;6.804;2023-03-03T07:36:40;101952.00;;;23.68;34.38
10712;BME280;5407;51.234;6.804;2023-03-03T07:39:24;101952.78;;;23.69;34.35
10712;BME280;5407;51.234;6.804;2023-03-03T07:41:55;101957.16;;;23.66;34.42
10712;BME280;5407;51.234;6.804;2023-03-03T07:44:30;101953.59;;;23.66;34.64
10712;BME280;5407;51.234;6.804;2023-03-03T07:47:14;101959.47;;;23.64;34.67
10712;BME280;5407;51.234;6.804;2023-03-03T07:49:47;101963.84;;;23.62;34.77
10712;BME280;5407;51.234;6.804;2023-03-03T07:52:24;101966.97;;;23.60;34.77
10712;BME280;5407;51.234;6.804;2023-03-03T07:54:55;101967.41;;;23.59;34.90
10712;BME280;5407;51.234;6.804;2023-03-03T07:57:24;101974.09;;;23.58;34.82
10712;BME280;5407;51.234;6.804;2023-03-03T07:59:54;101972.50;;;23.57;34.78
10712;BME280;5407;51.234;6.804;2023-03-03T08:02:38;101971.72;;;23.56;34.89
10712;BME280;5407;51.234;6.804;2023-03-03T08:05:27;101983.53;;;23.57;34.82
10712;BME280;5407;51.234;6.804;2023-03-03T08:08:00;101988.66;;;23.55;34.83
10712;BME280;5407;51.234;6.804;2023-03-03T08:10:34;101990.63;;;23.54;34.67
10712;BME280;5407;51.234;6.804;2023-03-03T08:13:11;102000.06;;;23.57;34.83
10712;BME280;5407;51.234;6.804;2023-03-03T08:15:39;101997.69;;;23.59;34.70
10712;BME280;5407;51.234;6.804;2023-03-03T08:18:18;102007.91;;;23.65;34.68
10712;BME280;5407;51.234;6.804;2023-03-03T08:20:49;102007.91;;;23.65;34.58
10712;BME280;5407;51.234;6.804;2023-03-03T08:23:19;102010.66;;;23.69;34.55
10712;BME280;5407;51.234;6.804;2023-03-03T08:25:47;102014.97;;;23.70;34.50
10712;BME280;5407;51.234;6.804;2023-03-03T08:28:14;102007.91;;;23.69;34.59
10712;BME280;5407;51.234;6.804;2023-03-03T08:30:42;102011.03;;;23.71;34.43
10712;BME280;5407;51.234;6.804;2023-03-03T08:33:10;102011.84;;;23.71;34.49
10712;BME280;5407;51.234;6.804;2023-03-03T08:35:38;102005.53;;;23.71;34.55
10712;BME280;5407;51.234;6.804;2023-03-03T08:38:08;102018.13;;;23.72;34.53
10712;BME280;5407;51.234;6.804;2023-03-03T08:40:36;102018.16;;;23.68;34.65
10712;BME280;5407;51.234;6.804;2023-03-03T08:43:03;102022.88;;;23.61;34.70
10712;BME280;5407;51.234;6.804;2023-03-03T08:45:30;102019.75;;;23.55;34.82
10712;BME280;5407;51.234;6.804;2023-03-03T08:47:57;102021.72;;;23.51;34.80
10712;BME280;5407;51.234;6.804;2023-03-03T08:50:24;102024.50;;;23.48;34.81
10712;BME280;5407;51.234;6.804;2023-03-03T08:52:51;102030.78;;;23.45;34.84
10712;BME280;5407;51.234;6.804;2023-03-03T08:55:20;102027.63;;;23.43;34.83
10712;BME280;5407;51.234;6.804;2023-03-03T08:57:47;102027.22;;;23.41;34.85
10712;BME280;5407;51.234;6.804;2023-03-03T09:00:15;102028.41;;;23.40;34.88
10712;BME280;5407;51.234;6.804;2023-03-03T09:02:43;102030.78;;;23.38;34.82
10712;BME280;5407;51.234;6.804;2023-03-03T09:05:10;102030.78;;;23.38;34.81
10712;BME280;5407;51.234;6.804;2023-03-03T09:07:37;102034.72;;;23.37;34.87
10712;BME280;5407;51.234;6.804;2023-03-03T09:10:05;102038.66;;;23.36;34.79
10712;BME280;5407;51.234;6.804;2023-03-03T09:12:37;102041.41;;;23.36;34.84
10712;BME280;5407;51.234;6.804;2023-03-03T09:15:13;102035.50;;;23.37;34.80
10712;BME280;5407;51.234;6.804;2023-03-03T09:17:41;102034.72;;;23.37;34.77
10712;BME280;5407;51.234;6.804;2023-03-03T09:20:23;102039.84;;;23.38;34.82
10712;BME280;5407;51.234;6.804;2023-03-03T09:22:50;102036.69;;;23.36;34.73
10712;BME280;5407;51.234;6.804;2023-03-03T09:25:22;102036.69;;;23.36;34.70
10712;BME280;5407;51.234;6.804;2023-03-03T09:27:53;102044.97;;;23.36;34.78
10712;BME280;5407;51.234;6.804;2023-03-03T09:30:35;102043.78;;;23.37;34.75
10712;BME280;5407;51.234;6.804;2023-03-03T09:33:18;102050.47;;;23.36;34.65
10712;BME280;5407;51.234;6.804;2023-03-03T09:35:50;102051.66;;;23.35;34.69
10712;BME280;5407;51.234;6.804;2023-03-03T09:38:25;102057.53;;;23.34;34.60
10712;BME280;5407;51.234;6.804;2023-03-03T09:41:18;102064.22;;;23.33;34.80
10712;BME280;5407;51.234;6.804;2023-03-03T09:44:23;102058.72;;;23.33;34.62
10712;BME280;5407;51.234;6.804;2023-03-03T09:47:07;102063.84;;;23.31;34.86
10712;BME280;5407;51.234;6.804;2023-03-03T09:49:46;102065.44;;;23.28;34.76
10712;BME280;5407;51.234;6.804;2023-03-03T09:52:31;102064.63;;;23.28;34.83
10712;BME280;5407;51.234;6.804;2023-03-03T09:55:10;102071.31;;;23.27;34.90
10712;BME280;5407;51.234;6.804;2023-03-03T09:58:05;102065.41;;;23.25;34.93
10712;BME280;5407;51.234;6.804;2023-03-03T10:00:44;102062.28;;;23.23;34.89
10712;BME280;5407;51.234;6.804;2023-03-03T10:03:41;102067.78;;;23.23;34.91
10712;BME280;5407;51.234;6.804;2023-03-03T10:06:19;102070.13;;;23.21;34.95
10712;BME280;5407;51.234;6.804;2023-03-03T10:09:07;102078.78;;;23.23;34.94
10712;BME280;5407;51.234;6.804;2023-03-03T10:11:40;102078.00;;;23.19;35.03
10712;BME280;5407;51.234;6.804;2023-03-03T10:14:44;102075.66;;;23.21;35.07
10712;BME280;5407;51.234;6.804;2023-03-03T10:17:25;102076.44;;;23.18;35.08
10712;BME280;5407;51.234;6.804;2023-03-03T10:20:06;102073.69;;;23.18;35.11
10712;BME280;5407;51.234;6.804;2023-03-03T10:22:46;102071.31;;;23.16;35.04
10712;BME280;5407;51.234;6.804;2023-03-03T10:25:26;102068.97;;;23.15;35.16
10712;BME280;5407;51.234;6.804;2023-03-03T10:28:05;102077.22;;;23.15;35.31
10712;BME280;5407;51.234;6.804;2023-03-03T10:30:43;102075.66;;;23.14;35.47
10712;BME280;5407;51.234;6.804;2023-03-03T10:33:20;102070.13;;;23.14;35.49
10712;BME280;5407;51.234;6.804;2023-03-03T10:36:07;102073.28;;;23.16;35.48
10712;BME280;5407;51.234;6.804;2023-03-03T10:38:45;102073.28;;;23.16;35.53
10712;BME280;5407;51.234;6.804;2023-03-03T10:41:31;102076.03;;;23.16;35.50
10712;BME280;5407;51.234;6.804;2023-03-03T10:44:10;102071.69;;;23.18;35.47
10712;BME280;5407;51.234;6.804;2023-03-03T10:46:53;102069.75;;;23.26;35.50
10712;BME280;5407;51.234;6.804;2023-03-03T10:49:46;102064.63;;;23.28;35.59
10712;BME280;5407;51.234;6.804;2023-03-03T10:52:28;102077.22;;;23.29;35.48
10712;BME280;5407;51.234;6.804;2023-03-03T10:55:23;102078.38;;;23.35;35.38
10712;BME280;5407;51.234;6.804;2023-03-03T10:58:03;102088.63;;;23.34;35.38
10712;BME280;5407;51.234;6.804;2023-03-03T11:00:37;102081.13;;;23.35;35.25
10712;BME280;5407;51.234;6.804;2023-03-03T11:06:14;102091.38;;;23.48;35.08
10712;BME280;5407;51.234;6.804;2023-03-03T11:08:47;102086.66;;;23.52;35.11
10712;BME280;5407;51.234;6.804;2023-03-03T11:11:20;102083.50;;;23.54;35.19
10712;BME280;5407;51.234;6.804;2023-03-03T11:13:55;102086.25;;;23.54;35.25
10712;BME280;5407;51.234;6.804;2023-03-03T11:16:36;102086.25;;;23.54;35.24
10712;BME280;5407;51.234;6.804;2023-03-03T11:19:17;102081.94;;;23.53;35.17
10712;BME280;5407;51.234;6.804;2023-03-03T11:21:55;102077.19;;;23.53;35.30
10712;BME280;5407;51.234;6.804;2023-03-03T11:24:38;102078.00;;;23.54;35.06
10712;BME280;5407;51.234;6.804;2023-03-03T11:27:49;102081.16;;;23.56;35.02
10712;BME280;5407;51.234;6.804;2023-03-03T11:30:32;102073.28;;;23.58;34.96
10712;BME280;5407;51.234;6.804;2023-03-03T11:33:02;102079.16;;;23.60;34.79
10712;BME280;5407;51.234;6.804;2023-03-03T11:35:35;102078.75;;;23.61;34.99
10712;BME280;5407;51.234;6.804;2023-03-03T11:38:22;102075.63;;;23.63;34.90
10712;BME280;5407;51.234;6.804;2023-03-03T11:40:53;102060.66;;;23.60;34.95
10712;BME280;5407;51.234;6.804;2023-03-03T11:43:26;102068.16;;;23.60;34.92
10712;BME280;5407;51.234;6.804;2023-03-03T11:45:56;102058.31;;;23.59;34.91
10712;BME280;5407;51.234;6.804;2023-03-03T11:48:32;102059.09;;;23.59;35.04
10712;BME280;5407;51.234;6.804;2023-03-03T11:51:03;102056.31;;;23.59;35.01
10712;BME280;5407;51.234;6.804;2023-03-03T11:53:42;102054.75;;;23.58;34.92
10712;BME280;5407;51.234;6.804;2023-03-03T11:56:20;102063.81;;;23.62;34.95
10712;BME280;5407;51.234;6.804;2023-03-03T11:58:56;102057.91;;;23.64;34.66
10712;BME280;5407;51.234;6.804;2023-03-03T12:01:30;102061.84;;;23.63;34.74
10712;BME280;5407;51.234;6.804;2023-03-03T12:04:02;102055.16;;;23.64;34.60
10712;BME280;5407;51.234;6.804;2023-03-03T12:06:38;102056.69;;;23.72;34.49
10712;BME280;5407;51.234;6.804;2023-03-03T12:09:26;102049.59;;;23.77;34.45
10712;BME280;5407;51.234;6.804;2023-03-03T12:12:02;102051.97;;;23.82;34.32
10712;BME280;5407;51.234;6.804;2023-03-03T12:14:46;102044.47;;;23.86;34.24
10712;BME280;5407;51.234;6.804;2023-03-03T12:17:27;102052.75;;;23.90;34.25
10712;BME280;5407;51.234;6.804;2023-03-03T12:20:07;102042.53;;;23.90;34.21
10712;BME280;5407;51.234;6.804;2023-03-03T12:22:41;102039.34;;;23.92;34.16
10712;BME280;5407;51.234;6.804;2023-03-03T12:25:22;102035.41;;;23.93;34.31
10712;BME280;5407;51.234;6.804;2023-03-03T12:27:56;102033.03;;;23.95;34.18
10712;BME280;5407;51.234;6.804;2023-03-03T12:30:32;102027.53;;;23.95;34.17
10712;BME280;5407;51.234;6.804;2023-03-03T12:33:11;102033.03;;;23.98;34.06
10712;BME280;5407;51.234;6.804;2023-03-03T12:35:43;102034.22;;;23.97;34.06
10712;BME280;5407;51.234;6.804;2023-03-03T12:38:20;102033.44;;;23.97;34.27
10712;BME280;5407;51.234;6.804;2023-03-03T12:40:58;102027.16;;;23.96;34.11
10712;BME280;5407;51.234;6.804;2023-03-03T12:43:38;102029.91;;;23.96;34.40
10712;BME280;5407;51.234;6.804;2023-03-03T12:46:16;102024.38;;;23.96;34.28
10712;BME280;5407;51.234;6.804;2023-03-03T12:48:46;102025.56;;;23.95;34.25
10712;BME280;5407;51.234;6.804;2023-03-03T12:51:33;102023.59;;;23.96;34.44
10712;BME280;5407;51.234;6.804;2023-03-03T12:57:20;102020.03;;;23.99;34.50
10712;BME280;5407;51.234;6.804;2023-03-03T12:59:56;102023.59;;;23.99;34.51
10712;BME280;5407;51.234;6.804;2023-03-03T13:02:52;102023.59;;;23.99;34.52
10712;BME280;5407;51.234;6.804;2023-03-03T13:05:28;102023.59;;;23.99;34.47
10712;BME280;5407;51.234;6.804;2023-03-03T13:08:16;102023.59;;;23.99;34.38
10712;BME280;5407;51.234;6.804;2023-03-03T13:10:52;102029.09;;;23.99;34.33
10712;BME280;5407;51.234;6.804;2023-03-03T13:13:27;102022.78;;;23.99;34.48
10712;BME280;5407;51.234;6.804;2023-03-03T13:16:01;102026.72;;;23.98;34.32
10712;BME280;5407;51.234;6.804;2023-03-03T13:18:35;102024.78;;;23.98;34.37
10712;BME280;5407;51.234;6.804;2023-03-03T13:21:09;102025.97;;;23.97;34.22
10712;BME280;5407;51.234;6.804;2023-03-03T13:23:44;102023.19;;;23.97;34.28
10712;BME280;5407;51.234;6.804;2023-03-03T13:26:17;102022.41;;;23.97;34.24
10712;BME280;5407;51.234;6.804;2023-03-03T13:28:55;102019.66;;;23.97;34.27
10712;BME280;5407;51.234;6.804;2023-03-03T13:31:28;102018.88;;;23.96;34.26
10712;BME280;5407;51.234;6.804;2023-03-03T13:33:58;102018.06;;;23.96;34.13